Anza, California
Current Conditions -  °F | °C
As of 4:53 AM on Monday 22 Dec 2014 (Local Time) from KPSP Reporting Station
Clear Clear  
Wind Chill: 51°   Ceiling: Unl
Heat Index: 51°   Visibility: 10mi
Dew Point: 44°   Wind: 6mph
Humidity: 77%   Direction: 320°NW
Pressure: 30.03"   Gusts: NA
Location:  33.55°N, 116.67°W
Report Text: KPSP 221253Z 32005KT 10SM CLR 11/07 A3003 RMK AO2 SLP170 T01060067
Loading
Personal Weather Stations






























Interactive Weather Map New forecast layout! Learn more

10-Day Weather Forecast

Advertisements
Track Severe Weather on mobile